XNO722 WMKP-WMKL
Flight info
| Callsign | XNO722 |
|---|---|
| Flight time | 0h 19m |
| Altitude | 10000 |
| Route | OMBOK DCT KAPKO KAPKO1E |
| Aircraft | A320/M-SDE3FGHIRWY/LB1 |
Departure
| Time | 2026-04-28 10:25 |
|---|---|
| Airport | Penang International Airport (WMKP) |
Arrival
| Time | 2026-04-28 10:44 |
|---|---|
| Airport | Langkawi International Airport (WMKL) |
| Time | Latitude | Longitude | Altitude | Speed | Heading |
|---|---|---|---|---|---|
| 2026-04-28 09:59 | 5.29224 | 100.26645 | 23 ft | 0 kts | 311° |
| 2026-04-28 10:17 | 5.29215 | 100.26656 | 23 ft | 4 kts | 309° |
| 2026-04-28 10:17 | 5.29198 | 100.26678 | 23 ft | 4 kts | 308° |
| 2026-04-28 10:18 | 5.29180 | 100.26697 | 23 ft | 3 kts | 322° |
| 2026-04-28 10:18 | 5.29164 | 100.26711 | 23 ft | 4 kts | 307° |
| 2026-04-28 10:18 | 5.29158 | 100.26728 | 25 ft | 4 kts | 227° |
| 2026-04-28 10:18 | 5.29175 | 100.26744 | 23 ft | 1 kts | 222° |
| 2026-04-28 10:19 | 5.29175 | 100.26745 | 23 ft | 0 kts | 222° |
| 2026-04-28 10:21 | 5.29171 | 100.26741 | 23 ft | 6 kts | 223° |
| 2026-04-28 10:21 | 5.29114 | 100.26689 | 25 ft | 13 kts | 221° |
| 2026-04-28 10:21 | 5.29047 | 100.26631 | 23 ft | 13 kts | 221° |
| 2026-04-28 10:21 | 5.28971 | 100.26621 | 24 ft | 11 kts | 147° |
| 2026-04-28 10:22 | 5.28900 | 100.26671 | 24 ft | 14 kts | 175° |
| 2026-04-28 10:22 | 5.28827 | 100.26621 | 24 ft | 13 kts | 220° |
| 2026-04-28 10:22 | 5.28747 | 100.26575 | 24 ft | 13 kts | 187° |
| 2026-04-28 10:22 | 5.28680 | 100.26597 | 24 ft | 0 kts | 134° |
| 2026-04-28 10:23 | 5.28652 | 100.26627 | 25 ft | 14 kts | 133° |
| 2026-04-28 10:23 | 5.28638 | 100.26705 | 24 ft | 13 kts | 51° |
| 2026-04-28 10:24 | 5.28663 | 100.26731 | 23 ft | 0 kts | 43° |
| 2026-04-28 10:24 | 5.28664 | 100.26731 | 23 ft | 1 kts | 43° |
| 2026-04-28 10:24 | 5.28799 | 100.26856 | 28 ft | 65 kts | 41° |
| 2026-04-28 10:25 | 5.29311 | 100.27319 | 27 ft | 130 kts | 42° |
| 2026-04-28 10:25 | 5.30111 | 100.28045 | 44 ft | 176 kts | 42° |
| 2026-04-28 10:25 | 5.31010 | 100.28859 | 725 ft | 174 kts | 41° |
| 2026-04-28 10:25 | 5.31940 | 100.29680 | 1310 ft | 182 kts | 40° |
| 2026-04-28 10:26 | 5.32919 | 100.30514 | 1911 ft | 187 kts | 39° |
| 2026-04-28 10:26 | 5.33931 | 100.31344 | 2551 ft | 190 kts | 37° |
| 2026-04-28 10:26 | 5.35013 | 100.32200 | 2824 ft | 211 kts | 28° |
| 2026-04-28 10:26 | 5.36231 | 100.33210 | 3041 ft | 240 kts | 42° |
| 2026-04-28 10:27 | 5.37655 | 100.34209 | 3391 ft | 263 kts | 18° |
| 2026-04-28 10:27 | 5.39497 | 100.34283 | 3977 ft | 273 kts | 342° |
| 2026-04-28 10:27 | 5.41146 | 100.33335 | 4769 ft | 277 kts | 319° |
| 2026-04-28 10:27 | 5.42523 | 100.31966 | 5579 ft | 281 kts | 311° |
| 2026-04-28 10:28 | 5.43832 | 100.30486 | 6341 ft | 286 kts | 311° |
| 2026-04-28 10:28 | 5.45187 | 100.28997 | 7081 ft | 292 kts | 313° |
| 2026-04-28 10:28 | 5.46620 | 100.27532 | 7820 ft | 296 kts | 316° |
| 2026-04-28 10:29 | 5.49683 | 100.24697 | 9343 ft | 301 kts | 320° |
| 2026-04-28 10:29 | 5.51277 | 100.23303 | 9818 ft | 306 kts | 321° |
| 2026-04-28 10:29 | 5.52891 | 100.21916 | 9950 ft | 306 kts | 321° |
| 2026-04-28 10:29 | 5.54531 | 100.20514 | 9978 ft | 305 kts | 321° |
| 2026-04-28 10:30 | 5.56145 | 100.19136 | 9980 ft | 305 kts | 321° |
| 2026-04-28 10:30 | 5.57757 | 100.17759 | 9980 ft | 304 kts | 321° |
| 2026-04-28 10:30 | 5.59343 | 100.16401 | 9980 ft | 305 kts | 321° |
| 2026-04-28 10:30 | 5.60955 | 100.15014 | 9980 ft | 305 kts | 321° |
| 2026-04-28 10:31 | 5.62563 | 100.13623 | 9980 ft | 305 kts | 321° |
| 2026-04-28 10:31 | 5.64169 | 100.12233 | 9980 ft | 305 kts | 321° |
| 2026-04-28 10:31 | 5.65773 | 100.10843 | 9980 ft | 305 kts | 321° |
| 2026-04-28 10:31 | 5.67378 | 100.09454 | 9982 ft | 305 kts | 321° |
| 2026-04-28 10:32 | 5.68985 | 100.08065 | 9982 ft | 305 kts | 321° |
| 2026-04-28 10:32 | 5.70592 | 100.06681 | 9982 ft | 304 kts | 321° |
| 2026-04-28 10:32 | 5.72197 | 100.05300 | 9980 ft | 304 kts | 321° |
| 2026-04-28 10:32 | 5.73912 | 100.04081 | 9976 ft | 302 kts | 334° |
| 2026-04-28 10:33 | 5.75802 | 100.03161 | 9945 ft | 303 kts | 336° |
| 2026-04-28 10:33 | 5.77700 | 100.02252 | 9818 ft | 302 kts | 336° |
| 2026-04-28 10:33 | 5.79620 | 100.01333 | 9692 ft | 301 kts | 336° |
| 2026-04-28 10:33 | 5.81484 | 100.00441 | 9570 ft | 301 kts | 336° |
| 2026-04-28 10:34 | 5.83372 | 99.99537 | 9446 ft | 301 kts | 336° |
| 2026-04-28 10:34 | 5.85256 | 99.98634 | 9321 ft | 299 kts | 336° |
| 2026-04-28 10:34 | 5.87134 | 99.97734 | 9199 ft | 299 kts | 336° |
| 2026-04-28 10:34 | 5.89009 | 99.96832 | 9072 ft | 298 kts | 336° |
| 2026-04-28 10:35 | 5.90908 | 99.95918 | 8938 ft | 298 kts | 336° |
| 2026-04-28 10:35 | 5.92776 | 99.95021 | 8811 ft | 297 kts | 336° |
| 2026-04-28 10:35 | 5.93972 | 99.94351 | 8728 ft | 298 kts | 329° |
| 2026-04-28 10:35 | 5.95611 | 99.93071 | 8606 ft | 299 kts | 318° |
| 2026-04-28 10:36 | 5.96990 | 99.91505 | 8482 ft | 300 kts | 307° |
| 2026-04-28 10:36 | 5.98112 | 99.89740 | 8354 ft | 300 kts | 303° |
| 2026-04-28 10:36 | 5.99204 | 99.87957 | 8230 ft | 299 kts | 303° |
| 2026-04-28 10:36 | 6.00301 | 99.86181 | 8102 ft | 299 kts | 303° |
| 2026-04-28 10:37 | 6.01392 | 99.84415 | 7982 ft | 297 kts | 303° |
| 2026-04-28 10:37 | 6.02481 | 99.82650 | 7850 ft | 297 kts | 303° |
| 2026-04-28 10:37 | 6.03568 | 99.80889 | 7726 ft | 296 kts | 303° |
| 2026-04-28 10:37 | 6.04651 | 99.79133 | 7600 ft | 295 kts | 303° |
| 2026-04-28 10:38 | 6.05730 | 99.77380 | 7471 ft | 295 kts | 303° |
| 2026-04-28 10:38 | 6.06806 | 99.75632 | 7349 ft | 294 kts | 303° |
| 2026-04-28 10:38 | 6.07882 | 99.73886 | 7122 ft | 294 kts | 303° |
| 2026-04-28 10:38 | 6.08949 | 99.72151 | 6618 ft | 290 kts | 303° |
| 2026-04-28 10:39 | 6.10004 | 99.70439 | 6102 ft | 287 kts | 303° |
| 2026-04-28 10:39 | 6.11058 | 99.68750 | 5604 ft | 284 kts | 307° |
| 2026-04-28 10:39 | 6.12366 | 99.67295 | 5103 ft | 279 kts | 321° |
| 2026-04-28 10:39 | 6.13895 | 99.66120 | 4445 ft | 275 kts | 318° |
| 2026-04-28 10:40 | 6.15183 | 99.64711 | 3722 ft | 272 kts | 315° |
| 2026-04-28 10:40 | 6.16767 | 99.63716 | 3307 ft | 267 kts | 343° |
| 2026-04-28 10:40 | 6.18571 | 99.63549 | 3076 ft | 259 kts | 7° |
| 2026-04-28 10:40 | 6.20231 | 99.64153 | 2781 ft | 253 kts | 31° |
| 2026-04-28 10:41 | 6.21649 | 99.65115 | 2469 ft | 239 kts | 33° |
| 2026-04-28 10:41 | 6.22983 | 99.66034 | 2164 ft | 225 kts | 33° |
| 2026-04-28 10:41 | 6.24229 | 99.66886 | 1883 ft | 208 kts | 33° |
| 2026-04-28 10:41 | 6.25388 | 99.67678 | 1620 ft | 193 kts | 33° |
| 2026-04-28 10:42 | 6.26450 | 99.68403 | 1371 ft | 175 kts | 33° |
| 2026-04-28 10:42 | 6.27408 | 99.69057 | 1137 ft | 159 kts | 33° |
| 2026-04-28 10:42 | 6.28299 | 99.69665 | 934 ft | 152 kts | 33° |
| 2026-04-28 10:42 | 6.29162 | 99.70255 | 734 ft | 149 kts | 33° |
| 2026-04-28 10:43 | 6.30012 | 99.70835 | 541 ft | 147 kts | 33° |
| 2026-04-28 10:43 | 6.30855 | 99.71411 | 346 ft | 146 kts | 35° |
| 2026-04-28 10:43 | 6.31697 | 99.71985 | 153 ft | 146 kts | 33° |
| 2026-04-28 10:43 | 6.32510 | 99.72548 | 35 ft | 134 kts | 36° |
| 2026-04-28 10:44 | 6.33139 | 99.72980 | 30 ft | 72 kts | 33° |
| 2026-04-28 10:44 | 6.33465 | 99.73202 | 32 ft | 55 kts | 34° |
| 2026-04-28 10:44 | 6.33675 | 99.73346 | 32 ft | 18 kts | 32° |
| 2026-04-28 10:44 | 6.33769 | 99.73317 | 32 ft | 8 kts | 301° |
| 2026-04-28 10:45 | 6.33782 | 99.73297 | 32 ft | 2 kts | 306° |
| 2026-04-28 10:45 | 6.33823 | 99.73240 | 32 ft | 12 kts | 306° |
| 2026-04-28 10:45 | 6.33878 | 99.73198 | 32 ft | 9 kts | 6° |
| 2026-04-28 10:45 | 6.33929 | 99.73225 | 32 ft | 9 kts | 33° |
| 2026-04-28 10:46 | 6.33980 | 99.73261 | 32 ft | 8 kts | 34° |
| 2026-04-28 10:46 | 6.34029 | 99.73294 | 32 ft | 11 kts | 34° |
| 2026-04-28 10:46 | 6.34094 | 99.73320 | 32 ft | 9 kts | 329° |
| 2026-04-28 10:46 | 6.34123 | 99.73282 | 32 ft | 2 kts | 305° |
| 2026-04-28 10:47 | 6.34126 | 99.73278 | 32 ft | 0 kts | 304° |